sensor_id;sensor_type;location;lat;lon;timestamp;pressure;altitude;pressure_sealevel;temperature;humidity
72721;BME280;60835;50.974;10.322;2023-06-10T00:00:28;98317.50;;;17.42;100.00
72721;BME280;60835;50.974;10.322;2023-06-10T00:02:57;98284.03;;;17.12;100.00
72721;BME280;60835;50.974;10.322;2023-06-10T00:05:23;98237.88;;;16.90;100.00
72721;BME280;60835;50.974;10.322;2023-06-10T00:07:50;98206.53;;;16.64;100.00
72721;BME280;60835;50.974;10.322;2023-06-10T00:10:17;98181.84;;;16.56;100.00
72721;BME280;60835;50.974;10.322;2023-06-10T00:12:43;98178.56;;;16.60;100.00
72721;BME280;60835;50.974;10.322;2023-06-10T00:15:10;98176.63;;;16.41;100.00
72721;BME280;60835;50.974;10.322;2023-06-10T00:17:37;98205.53;;;16.37;100.00
72721;BME280;60835;50.974;10.322;2023-06-10T00:20:10;98238.03;;;16.41;100.00
72721;BME280;60835;50.974;10.322;2023-06-10T00:22:39;98245.00;;;16.42;100.00
72721;BME280;60835;50.974;10.322;2023-06-10T00:25:06;98269.69;;;16.51;100.00
72721;BME280;60835;50.974;10.322;2023-06-10T00:27:34;98277.25;;;16.40;100.00
72721;BME280;60835;50.974;10.322;2023-06-10T00:30:05;98273.81;;;16.47;100.00
72721;BME280;60835;50.974;10.322;2023-06-10T00:32:34;98285.50;;;16.45;100.00
72721;BME280;60835;50.974;10.322;2023-06-10T00:35:03;98294.22;;;16.54;100.00
72721;BME280;60835;50.974;10.322;2023-06-10T00:37:29;98299.72;;;16.53;100.00
72721;BME280;60835;50.974;10.322;2023-06-10T00:39:56;98295.16;;;16.47;100.00
72721;BME280;60835;50.974;10.322;2023-06-10T00:42:23;98304.69;;;16.56;100.00
72721;BME280;60835;50.974;10.322;2023-06-10T00:44:51;98339.31;;;16.70;100.00
72721;BME280;60835;50.974;10.322;2023-06-10T00:47:18;98326.50;;;16.59;100.00
72721;BME280;60835;50.974;10.322;2023-06-10T00:49:45;98277.34;;;16.54;100.00
72721;BME280;60835;50.974;10.322;2023-06-10T00:52:14;98203.53;;;16.46;100.00
72721;BME280;60835;50.974;10.322;2023-06-10T00:54:41;98152.00;;;16.52;100.00
72721;BME280;60835;50.974;10.322;2023-06-10T00:57:08;98132.00;;;16.35;100.00
72721;BME280;60835;50.974;10.322;2023-06-10T00:59:35;98070.16;;;16.25;100.00
72721;BME280;60835;50.974;10.322;2023-06-10T01:02:03;98081.09;;;16.43;100.00
72721;BME280;60835;50.974;10.322;2023-06-10T01:04:30;98094.69;;;16.48;100.00
72721;BME280;60835;50.974;10.322;2023-06-10T01:07:09;98079.84;;;16.39;100.00
72721;BME280;60835;50.974;10.322;2023-06-10T01:09:43;98028.84;;;16.21;100.00
72721;BME280;60835;50.974;10.322;2023-06-10T01:12:19;98002.16;;;16.21;100.00
72721;BME280;60835;50.974;10.322;2023-06-10T01:14:48;98043.28;;;16.33;100.00
72721;BME280;60835;50.974;10.322;2023-06-10T01:17:15;98012.84;;;16.21;100.00
72721;BME280;60835;50.974;10.322;2023-06-10T01:19:44;97982.59;;;16.01;100.00
72721;BME280;60835;50.974;10.322;2023-06-10T01:22:19;97944.16;;;15.89;100.00
72721;BME280;60835;50.974;10.322;2023-06-10T01:24:46;97955.75;;;16.09;100.00
72721;BME280;60835;50.974;10.322;2023-06-10T01:27:19;97994.38;;;16.19;100.00
72721;BME280;60835;50.974;10.322;2023-06-10T01:29:59;97987.28;;;15.86;100.00
72721;BME280;60835;50.974;10.322;2023-06-10T01:32:36;97958.41;;;15.61;100.00
72721;BME280;60835;50.974;10.322;2023-06-10T01:35:05;97970.09;;;16.01;100.00
72721;BME280;60835;50.974;10.322;2023-06-10T01:37:34;98021.53;;;15.89;100.00
72721;BME280;60835;50.974;10.322;2023-06-10T01:40:02;98025.78;;;15.76;100.00
72721;BME280;60835;50.974;10.322;2023-06-10T01:42:33;98034.00;;;15.81;100.00
72721;BME280;60835;50.974;10.322;2023-06-10T01:44:59;98079.72;;;16.06;100.00
72721;BME280;60835;50.974;10.322;2023-06-10T01:47:27;98084.53;;;15.90;100.00
72721;BME280;60835;50.974;10.322;2023-06-10T01:49:54;98120.72;;;15.99;100.00
72721;BME280;60835;50.974;10.322;2023-06-10T01:52:20;98103.50;;;15.73;100.00
72721;BME280;60835;50.974;10.322;2023-06-10T01:54:47;98109.56;;;15.89;100.00
72721;BME280;60835;50.974;10.322;2023-06-10T01:57:14;98099.97;;;15.66;100.00
72721;BME280;60835;50.974;10.322;2023-06-10T01:59:42;98098.31;;;15.65;100.00
72721;BME280;60835;50.974;10.322;2023-06-10T02:02:10;98109.88;;;15.72;100.00
72721;BME280;60835;50.974;10.322;2023-06-10T02:04:37;98131.47;;;15.77;100.00
72721;BME280;60835;50.974;10.322;2023-06-10T02:07:04;98132.00;;;15.73;100.00
72721;BME280;60835;50.974;10.322;2023-06-10T02:09:32;98081.25;;;15.60;100.00
72721;BME280;60835;50.974;10.322;2023-06-10T02:12:03;98045.53;;;15.33;100.00
72721;BME280;60835;50.974;10.322;2023-06-10T02:14:32;98032.91;;;15.14;100.00
72721;BME280;60835;50.974;10.322;2023-06-10T02:16:59;97994.53;;;15.08;100.00
72721;BME280;60835;50.974;10.322;2023-06-10T02:19:25;97988.38;;;15.08;100.00
72721;BME280;60835;50.974;10.322;2023-06-10T02:21:53;97979.22;;;14.89;100.00
72721;BME280;60835;50.974;10.322;2023-06-10T02:24:19;97983.44;;;14.77;100.00
72721;BME280;60835;50.974;10.322;2023-06-10T02:26:46;97949.75;;;14.70;100.00
72721;BME280;60835;50.974;10.322;2023-06-10T02:29:14;97948.41;;;14.80;100.00
72721;BME280;60835;50.974;10.322;2023-06-10T02:31:41;97913.41;;;14.55;100.00
72721;BME280;60835;50.974;10.322;2023-06-10T02:34:07;97901.72;;;14.56;100.00
72721;BME280;60835;50.974;10.322;2023-06-10T02:36:35;97886.28;;;14.45;100.00
72721;BME280;60835;50.974;10.322;2023-06-10T02:39:03;97882.84;;;14.51;100.00
72721;BME280;60835;50.974;10.322;2023-06-10T02:41:32;97874.22;;;14.49;100.00
72721;BME280;60835;50.974;10.322;2023-06-10T02:44:02;97878.09;;;14.47;100.00
72721;BME280;60835;50.974;10.322;2023-06-10T02:46:29;97872.31;;;14.43;100.00
72721;BME280;60835;50.974;10.322;2023-06-10T02:48:55;97856.84;;;14.53;100.00
72721;BME280;60835;50.974;10.322;2023-06-10T02:51:22;97893.44;;;14.73;100.00
72721;BME280;60835;50.974;10.322;2023-06-10T02:53:49;97936.88;;;14.73;100.00
72721;BME280;60835;50.974;10.322;2023-06-10T02:56:17;97915.84;;;14.57;100.00
72721;BME280;60835;50.974;10.322;2023-06-10T02:58:43;97837.72;;;14.22;100.00
72721;BME280;60835;50.974;10.322;2023-06-10T03:01:10;97767.63;;;14.09;100.00
72721;BME280;60835;50.974;10.322;2023-06-10T03:03:37;97727.19;;;14.20;100.00
72721;BME280;60835;50.974;10.322;2023-06-10T03:06:12;97744.47;;;14.30;100.00
72721;BME280;60835;50.974;10.322;2023-06-10T03:08:39;97738.31;;;14.30;100.00
72721;BME280;60835;50.974;10.322;2023-06-10T03:11:08;97728.66;;;14.22;100.00
72721;BME280;60835;50.974;10.322;2023-06-10T03:13:34;97681.88;;;14.00;100.00
72721;BME280;60835;50.974;10.322;2023-06-10T03:16:01;97662.44;;;14.06;100.00
72721;BME280;60835;50.974;10.322;2023-06-10T03:18:29;97632.50;;;13.91;100.00
72721;BME280;60835;50.974;10.322;2023-06-10T03:20:56;97603.88;;;13.93;100.00
72721;BME280;60835;50.974;10.322;2023-06-10T03:23:23;97602.47;;;13.97;100.00
72721;BME280;60835;50.974;10.322;2023-06-10T03:25:50;97572.31;;;13.83;100.00
72721;BME280;60835;50.974;10.322;2023-06-10T03:28:16;97561.63;;;13.77;100.00
72721;BME280;60835;50.974;10.322;2023-06-10T03:30:43;97560.16;;;13.68;100.00
72721;BME280;60835;50.974;10.322;2023-06-10T03:33:09;97541.56;;;13.68;100.00
72721;BME280;60835;50.974;10.322;2023-06-10T03:35:36;97527.88;;;13.71;100.00
72721;BME280;60835;50.974;10.322;2023-06-10T03:38:03;97507.22;;;13.73;100.00
72721;BME280;60835;50.974;10.322;2023-06-10T03:40:30;97491.69;;;13.70;100.00
72721;BME280;60835;50.974;10.322;2023-06-10T03:42:58;97474.72;;;13.71;100.00
72721;BME280;60835;50.974;10.322;2023-06-10T03:45:25;97470.06;;;13.86;100.00
72721;BME280;60835;50.974;10.322;2023-06-10T03:47:54;97483.22;;;13.94;100.00
72721;BME280;60835;50.974;10.322;2023-06-10T03:50:22;97493.00;;;13.93;100.00
72721;BME280;60835;50.974;10.322;2023-06-10T03:52:50;97495.63;;;13.80;100.00
72721;BME280;60835;50.974;10.322;2023-06-10T03:55:17;97496.16;;;13.69;100.00
72721;BME280;60835;50.974;10.322;2023-06-10T03:57:44;97453.41;;;13.58;100.00
72721;BME280;60835;50.974;10.322;2023-06-10T04:00:11;97432.31;;;13.56;100.00
72721;BME280;60835;50.974;10.322;2023-06-10T04:02:39;97419.84;;;13.57;100.00
72721;BME280;60835;50.974;10.322;2023-06-10T04:05:16;97422.59;;;13.76;100.00
72721;BME280;60835;50.974;10.322;2023-06-10T04:07:43;97443.66;;;13.78;100.00
72721;BME280;60835;50.974;10.322;2023-06-10T04:10:11;97451.69;;;13.84;100.00
72721;BME280;60835;50.974;10.322;2023-06-10T04:12:38;97447.59;;;13.82;100.00
72721;BME280;60835;50.974;10.322;2023-06-10T04:15:05;97450.25;;;13.88;100.00
72721;BME280;60835;50.974;10.322;2023-06-10T04:17:34;97477.91;;;14.00;100.00
72721;BME280;60835;50.974;10.322;2023-06-10T04:20:00;97484.03;;;13.94;100.00
72721;BME280;60835;50.974;10.322;2023-06-10T04:22:27;97478.72;;;13.94;100.00
72721;BME280;60835;50.974;10.322;2023-06-10T04:24:54;97478.72;;;14.01;100.00
72721;BME280;60835;50.974;10.322;2023-06-10T04:27:20;97491.06;;;14.15;100.00
72721;BME280;60835;50.974;10.322;2023-06-10T04:29:47;97511.13;;;14.18;100.00
72721;BME280;60835;50.974;10.322;2023-06-10T04:32:13;97511.56;;;14.21;100.00
72721;BME280;60835;50.974;10.322;2023-06-10T04:34:40;97524.28;;;14.32;100.00
72721;BME280;60835;50.974;10.322;2023-06-10T04:37:06;97542.34;;;14.43;100.00
72721;BME280;60835;50.974;10.322;2023-06-10T04:39:33;97597.88;;;14.59;100.00
72721;BME280;60835;50.974;10.322;2023-06-10T04:42:04;97616.94;;;14.70;100.00
72721;BME280;60835;50.974;10.322;2023-06-10T04:44:32;97605.94;;;14.79;100.00
72721;BME280;60835;50.974;10.322;2023-06-10T04:46:59;97634.25;;;15.00;100.00
72721;BME280;60835;50.974;10.322;2023-06-10T04:49:25;97700.31;;;15.24;100.00
72721;BME280;60835;50.974;10.322;2023-06-10T04:51:52;97732.28;;;15.24;100.00
72721;BME280;60835;50.974;10.322;2023-06-10T04:54:18;97774.59;;;15.47;100.00
72721;BME280;60835;50.974;10.322;2023-06-10T04:56:45;97806.41;;;15.48;100.00
72721;BME280;60835;50.974;10.322;2023-06-10T04:59:12;97821.19;;;15.57;100.00
72721;BME280;60835;50.974;10.322;2023-06-10T05:01:38;97858.75;;;15.75;100.00
72721;BME280;60835;50.974;10.322;2023-06-10T05:04:05;97891.41;;;15.77;100.00
72721;BME280;60835;50.974;10.322;2023-06-10T05:06:32;97914.41;;;15.92;100.00
72721;BME280;60835;50.974;10.322;2023-06-10T05:08:59;97919.16;;;15.90;100.00
72721;BME280;60835;50.974;10.322;2023-06-10T05:11:26;97944.03;;;16.10;100.00
72721;BME280;60835;50.974;10.322;2023-06-10T05:13:52;97955.34;;;16.12;100.00
72721;BME280;60835;50.974;10.322;2023-06-10T05:16:19;97986.81;;;16.23;100.00
72721;BME280;60835;50.974;10.322;2023-06-10T05:18:46;97996.03;;;16.27;100.00
72721;BME280;60835;50.974;10.322;2023-06-10T05:21:13;97999.28;;;16.09;100.00
72721;BME280;60835;50.974;10.322;2023-06-10T05:23:39;98010.22;;;16.34;100.00
72721;BME280;60835;50.974;10.322;2023-06-10T05:26:07;98008.63;;;16.46;100.00
72721;BME280;60835;50.974;10.322;2023-06-10T05:28:34;98037.22;;;16.59;100.00
72721;BME280;60835;50.974;10.322;2023-06-10T05:31:00;98059.47;;;16.72;100.00
72721;BME280;60835;50.974;10.322;2023-06-10T05:33:27;98082.50;;;16.86;100.00
72721;BME280;60835;50.974;10.322;2023-06-10T05:35:53;98113.56;;;16.94;100.00
72721;BME280;60835;50.974;10.322;2023-06-10T05:38:20;98154.38;;;17.42;100.00
72721;BME280;60835;50.974;10.322;2023-06-10T05:40:47;98154.56;;;17.34;100.00
72721;BME280;60835;50.974;10.322;2023-06-10T05:43:13;98171.47;;;17.54;100.00
72721;BME280;60835;50.974;10.322;2023-06-10T05:45:40;98159.91;;;17.47;100.00
72721;BME280;60835;50.974;10.322;2023-06-10T05:48:07;98225.41;;;17.84;100.00
72721;BME280;60835;50.974;10.322;2023-06-10T05:50:34;98250.09;;;18.45;100.00
72721;BME280;60835;50.974;10.322;2023-06-10T05:53:05;98392.69;;;19.06;100.00
72721;BME280;60835;50.974;10.322;2023-06-10T05:55:33;98488.78;;;19.15;100.00
72721;BME280;60835;50.974;10.322;2023-06-10T05:58:00;98576.44;;;19.87;100.00
72721;BME280;60835;50.974;10.322;2023-06-10T06:00:27;98633.25;;;19.90;100.00
72721;BME280;60835;50.974;10.322;2023-06-10T06:02:54;98732.94;;;20.66;100.00
72721;BME280;60835;50.974;10.322;2023-06-10T06:05:21;98760.47;;;20.55;100.00
72721;BME280;60835;50.974;10.322;2023-06-10T06:07:48;98782.75;;;20.82;100.00
72721;BME280;60835;50.974;10.322;2023-06-10T06:10:16;98810.44;;;21.02;100.00
72721;BME280;60835;50.974;10.322;2023-06-10T06:12:43;98855.72;;;21.05;100.00
72721;BME280;60835;50.974;10.322;2023-06-10T06:15:10;98855.09;;;21.16;100.00
72721;BME280;60835;50.974;10.322;2023-06-10T06:17:37;98857.19;;;21.01;100.00
72721;BME280;60835;50.974;10.322;2023-06-10T06:20:05;98921.81;;;22.16;100.00
72721;BME280;60835;50.974;10.322;2023-06-10T06:22:32;98899.28;;;21.53;100.00
72721;BME280;60835;50.974;10.322;2023-06-10T06:24:58;98923.38;;;22.30;100.00
72721;BME280;60835;50.974;10.322;2023-06-10T06:27:25;98929.91;;;22.16;100.00
72721;BME280;60835;50.974;10.322;2023-06-10T06:29:52;98955.72;;;22.61;100.00
72721;BME280;60835;50.974;10.322;2023-06-10T06:32:19;98950.16;;;22.56;100.00
72721;BME280;60835;50.974;10.322;2023-06-10T06:34:45;98969.44;;;22.66;100.00
72721;BME280;60835;50.974;10.322;2023-06-10T06:37:12;98978.28;;;22.73;100.00
72721;BME280;60835;50.974;10.322;2023-06-10T06:39:39;98982.47;;;22.94;100.00
72721;BME280;60835;50.974;10.322;2023-06-10T06:42:10;98966.72;;;22.66;100.00
72721;BME280;60835;50.974;10.322;2023-06-10T06:44:37;98959.66;;;22.65;100.00
72721;BME280;60835;50.974;10.322;2023-06-10T06:47:04;98985.34;;;22.99;100.00
72721;BME280;60835;50.974;10.322;2023-06-10T06:49:30;98963.53;;;22.38;100.00
72721;BME280;60835;50.974;10.322;2023-06-10T06:51:57;98978.78;;;22.88;100.00
72721;BME280;60835;50.974;10.322;2023-06-10T06:54:27;98973.88;;;23.03;100.00
72721;BME280;60835;50.974;10.322;2023-06-10T06:56:53;99013.78;;;23.87;100.00
72721;BME280;60835;50.974;10.322;2023-06-10T06:59:20;99002.84;;;23.15;100.00
72721;BME280;60835;50.974;10.322;2023-06-10T07:01:46;99014.84;;;23.86;100.00
72721;BME280;60835;50.974;10.322;2023-06-10T07:04:15;99030.59;;;23.71;100.00
72721;BME280;60835;50.974;10.322;2023-06-10T07:06:42;99040.41;;;24.08;100.00
72721;BME280;60835;50.974;10.322;2023-06-10T07:09:08;99014.00;;;23.68;100.00
72721;BME280;60835;50.974;10.322;2023-06-10T07:11:35;99030.09;;;24.47;100.00
72721;BME280;60835;50.974;10.322;2023-06-10T07:14:02;99048.25;;;24.10;100.00
72721;BME280;60835;50.974;10.322;2023-06-10T07:16:29;99035.00;;;24.08;100.00
72721;BME280;60835;50.974;10.322;2023-06-10T07:18:56;99037.81;;;23.95;100.00
72721;BME280;60835;50.974;10.322;2023-06-10T07:21:23;99053.41;;;24.48;100.00
72721;BME280;60835;50.974;10.322;2023-06-10T07:23:49;99041.81;;;24.59;100.00
72721;BME280;60835;50.974;10.322;2023-06-10T07:26:22;99037.91;;;24.25;100.00
72721;BME280;60835;50.974;10.322;2023-06-10T07:28:48;99055.53;;;25.28;100.00
72721;BME280;60835;50.974;10.322;2023-06-10T07:31:15;99060.06;;;25.58;100.00
72721;BME280;60835;50.974;10.322;2023-06-10T07:33:42;99048.59;;;25.21;100.00
72721;BME280;60835;50.974;10.322;2023-06-10T07:36:09;99067.88;;;25.89;100.00
72721;BME280;60835;50.974;10.322;2023-06-10T07:38:36;99052.69;;;25.65;100.00
72721;BME280;60835;50.974;10.322;2023-06-10T07:41:03;99057.31;;;25.34;100.00
72721;BME280;60835;50.974;10.322;2023-06-10T07:43:29;99053.84;;;25.92;100.00
72721;BME280;60835;50.974;10.322;2023-06-10T07:45:56;99070.84;;;26.79;100.00
72721;BME280;60835;50.974;10.322;2023-06-10T07:48:23;99063.22;;;26.24;100.00
72721;BME280;60835;50.974;10.322;2023-06-10T07:50:51;99052.63;;;26.23;100.00
72721;BME280;60835;50.974;10.322;2023-06-10T07:53:18;99069.00;;;26.56;100.00
72721;BME280;60835;50.974;10.322;2023-06-10T07:55:45;99060.47;;;26.47;100.00
72721;BME280;60835;50.974;10.322;2023-06-10T07:58:11;99070.38;;;27.43;100.00
72721;BME280;60835;50.974;10.322;2023-06-10T08:00:38;99065.75;;;27.44;100.00
72721;BME280;60835;50.974;10.322;2023-06-10T08:03:05;99026.53;;;25.70;100.00
72721;BME280;60835;50.974;10.322;2023-06-10T08:05:32;99064.09;;;27.26;100.00
72721;BME280;60835;50.974;10.322;2023-06-10T08:07:58;99044.72;;;25.98;100.00
72721;BME280;60835;50.974;10.322;2023-06-10T08:10:29;99066.88;;;26.98;100.00
72721;BME280;60835;50.974;10.322;2023-06-10T08:12:56;99062.25;;;26.42;100.00
72721;BME280;60835;50.974;10.322;2023-06-10T08:15:24;98990.97;;;23.83;100.00
72721;BME280;60835;50.974;10.322;2023-06-10T08:17:50;99045.91;;;26.02;100.00
72721;BME280;60835;50.974;10.322;2023-06-10T08:20:18;99055.69;;;26.15;100.00
72721;BME280;60835;50.974;10.322;2023-06-10T08:22:45;99032.81;;;26.22;100.00
72721;BME280;60835;50.974;10.322;2023-06-10T08:25:11;99042.00;;;26.21;100.00
72721;BME280;60835;50.974;10.322;2023-06-10T08:27:38;99038.81;;;26.24;100.00
72721;BME280;60835;50.974;10.322;2023-06-10T08:30:05;99040.41;;;25.74;100.00
72721;BME280;60835;50.974;10.322;2023-06-10T08:32:32;99039.38;;;25.52;100.00
72721;BME280;60835;50.974;10.322;2023-06-10T08:34:58;99023.88;;;24.76;100.00
72721;BME280;60835;50.974;10.322;2023-06-10T08:37:25;99036.72;;;26.15;100.00
72721;BME280;60835;50.974;10.322;2023-06-10T08:39:52;99049.78;;;26.57;100.00
72721;BME280;60835;50.974;10.322;2023-06-10T08:42:28;99065.22;;;26.97;100.00
72721;BME280;60835;50.974;10.322;2023-06-10T08:45:02;99026.59;;;25.87;100.00
72721;BME280;60835;50.974;10.322;2023-06-10T08:47:30;99036.53;;;25.47;100.00
72721;BME280;60835;50.974;10.322;2023-06-10T08:50:03;99039.13;;;26.68;100.00
72721;BME280;60835;50.974;10.322;2023-06-10T08:52:37;99066.25;;;26.68;100.00
72721;BME280;60835;50.974;10.322;2023-06-10T08:55:16;99046.63;;;26.49;100.00
72721;BME280;60835;50.974;10.322;2023-06-10T08:57:47;99031.44;;;26.93;100.00
72721;BME280;60835;50.974;10.322;2023-06-10T09:00:16;99060.94;;;28.22;100.00
72721;BME280;60835;50.974;10.322;2023-06-10T09:02:43;99050.59;;;27.64;100.00
72721;BME280;60835;50.974;10.322;2023-06-10T09:05:11;99043.84;;;27.34;100.00
72721;BME280;60835;50.974;10.322;2023-06-10T09:07:39;99032.44;;;27.70;100.00
72721;BME280;60835;50.974;10.322;2023-06-10T09:10:07;99015.31;;;26.30;100.00
72721;BME280;60835;50.974;10.322;2023-06-10T09:12:35;99041.78;;;28.82;100.00
72721;BME280;60835;50.974;10.322;2023-06-10T09:15:02;99030.00;;;26.45;100.00
72721;BME280;60835;50.974;10.322;2023-06-10T09:17:29;99035.44;;;28.50;100.00
72721;BME280;60835;50.974;10.322;2023-06-10T09:19:56;99037.47;;;28.86;100.00
72721;BME280;60835;50.974;10.322;2023-06-10T09:22:24;99039.00;;;27.91;100.00
72721;BME280;60835;50.974;10.322;2023-06-10T09:25:07;99014.06;;;26.09;100.00
72721;BME280;60835;50.974;10.322;2023-06-10T09:27:47;99030.63;;;27.75;100.00
72721;BME280;60835;50.974;10.322;2023-06-10T09:30:27;99043.91;;;29.34;100.00
72721;BME280;60835;50.974;10.322;2023-06-10T09:32:55;99061.59;;;29.05;100.00
72721;BME280;60835;50.974;10.322;2023-06-10T09:35:24;99058.75;;;28.89;100.00
72721;BME280;60835;50.974;10.322;2023-06-10T09:37:56;99051.50;;;30.05;100.00
72721;BME280;60835;50.974;10.322;2023-06-10T09:40:23;99046.16;;;29.15;100.00
72721;BME280;60835;50.974;10.322;2023-06-10T09:42:56;99052.88;;;28.76;100.00
72721;BME280;60835;50.974;10.322;2023-06-10T09:45:31;99042.34;;;29.43;100.00
72721;BME280;60835;50.974;10.322;2023-06-10T09:47:58;99057.06;;;29.15;100.00
72721;BME280;60835;50.974;10.322;2023-06-10T09:50:25;99051.47;;;29.64;100.00
72721;BME280;60835;50.974;10.322;2023-06-10T09:52:52;99052.72;;;29.46;100.00
72721;BME280;60835;50.974;10.322;2023-06-10T09:55:19;99039.94;;;28.01;100.00
72721;BME280;60835;50.974;10.322;2023-06-10T09:57:49;99047.91;;;29.21;100.00
72721;BME280;60835;50.974;10.322;2023-06-10T10:00:18;99017.25;;;27.19;100.00
72721;BME280;60835;50.974;10.322;2023-06-10T10:02:49;99039.22;;;28.97;100.00
72721;BME280;60835;50.974;10.322;2023-06-10T10:05:18;99026.38;;;30.03;100.00
72721;BME280;60835;50.974;10.322;2023-06-10T10:07:46;99050.94;;;29.25;100.00
72721;BME280;60835;50.974;10.322;2023-06-10T10:10:17;99051.75;;;28.72;100.00
72721;BME280;60835;50.974;10.322;2023-06-10T10:12:46;99030.28;;;29.34;100.00
72721;BME280;60835;50.974;10.322;2023-06-10T10:15:16;99036.38;;;28.39;100.00
72721;BME280;60835;50.974;10.322;2023-06-10T10:17:47;99033.75;;;29.61;100.00
72721;BME280;60835;50.974;10.322;2023-06-10T10:20:20;99040.25;;;30.59;100.00
72721;BME280;60835;50.974;10.322;2023-06-10T10:22:49;99046.03;;;30.05;100.00
72721;BME280;60835;50.974;10.322;2023-06-10T10:25:17;99048.09;;;29.83;100.00
72721;BME280;60835;50.974;10.322;2023-06-10T10:27:51;99020.53;;;29.80;100.00
72721;BME280;60835;50.974;10.322;2023-06-10T10:30:22;99042.84;;;31.66;100.00
72721;BME280;60835;50.974;10.322;2023-06-10T10:33:12;99038.19;;;29.04;100.00
72721;BME280;60835;50.974;10.322;2023-06-10T10:35:43;99047.44;;;29.71;100.00
72721;BME280;60835;50.974;10.322;2023-06-10T10:38:10;99015.03;;;27.16;100.00
72721;BME280;60835;50.974;10.322;2023-06-10T10:40:37;99039.41;;;30.48;100.00
72721;BME280;60835;50.974;10.322;2023-06-10T10:43:04;99029.44;;;29.02;100.00
72721;BME280;60835;50.974;10.322;2023-06-10T10:45:34;99035.03;;;29.85;100.00
72721;BME280;60835;50.974;10.322;2023-06-10T10:48:07;99031.81;;;30.60;100.00
72721;BME280;60835;50.974;10.322;2023-06-10T10:50:37;99025.94;;;30.27;100.00
72721;BME280;60835;50.974;10.322;2023-06-10T10:53:05;99037.66;;;31.04;100.00
72721;BME280;60835;50.974;10.322;2023-06-10T10:55:32;99029.66;;;30.05;100.00
72721;BME280;60835;50.974;10.322;2023-06-10T10:58:05;99034.56;;;30.65;100.00
72721;BME280;60835;50.974;10.322;2023-06-10T11:00:35;99011.16;;;29.71;100.00
72721;BME280;60835;50.974;10.322;2023-06-10T11:05:37;99033.00;;;29.34;100.00
72721;BME280;60835;50.974;10.322;2023-06-10T11:08:08;99019.19;;;29.45;100.00
72721;BME280;60835;50.974;10.322;2023-06-10T11:10:40;99012.84;;;28.28;100.00
72721;BME280;60835;50.974;10.322;2023-06-10T11:13:14;98999.91;;;29.57;100.00
72721;BME280;60835;50.974;10.322;2023-06-10T11:18:27;99010.00;;;30.03;100.00
72721;BME280;60835;50.974;10.322;2023-06-10T11:23:33;99018.81;;;29.32;100.00
72721;BME280;60835;50.974;10.322;2023-06-10T11:26:17;99012.25;;;30.22;100.00
72721;BME280;60835;50.974;10.322;2023-06-10T11:33:56;99009.63;;;30.37;100.00
72721;BME280;60835;50.974;10.322;2023-06-10T11:36:24;98996.47;;;30.29;100.00
72721;BME280;60835;50.974;10.322;2023-06-10T11:39:03;98977.53;;;31.04;100.00
72721;BME280;60835;50.974;10.322;2023-06-10T11:41:31;98999.91;;;31.11;100.00
72721;BME280;60835;50.974;10.322;2023-06-10T11:44:03;98998.75;;;29.90;100.00
72721;BME280;60835;50.974;10.322;2023-06-10T11:46:30;99002.91;;;29.55;100.00
72721;BME280;60835;50.974;10.322;2023-06-10T11:48:59;99001.97;;;29.08;100.00
72721;BME280;60835;50.974;10.322;2023-06-10T11:51:28;98988.88;;;30.36;100.00
72721;BME280;60835;50.974;10.322;2023-06-10T11:53:56;99003.16;;;30.73;100.00
72721;BME280;60835;50.974;10.322;2023-06-10T11:56:27;99005.94;;;32.87;100.00
72721;BME280;60835;50.974;10.322;2023-06-10T11:58:55;99002.00;;;30.49;100.00
72721;BME280;60835;50.974;10.322;2023-06-10T12:01:26;99001.59;;;30.92;100.00
72721;BME280;60835;50.974;10.322;2023-06-10T12:04:02;99001.50;;;30.62;100.00
72721;BME280;60835;50.974;10.322;2023-06-10T12:09:24;98999.38;;;30.02;100.00
72721;BME280;60835;50.974;10.322;2023-06-10T12:20:01;98991.91;;;29.09;100.00
72721;BME280;60835;50.974;10.322;2023-06-10T12:22:41;98976.38;;;29.88;100.00
72721;BME280;60835;50.974;10.322;2023-06-10T12:25:09;98972.31;;;28.53;100.00
72721;BME280;60835;50.974;10.322;2023-06-10T12:27:38;98973.22;;;29.64;100.00
72721;BME280;60835;50.974;10.322;2023-06-10T12:30:07;98984.63;;;31.15;100.00
72721;BME280;60835;50.974;10.322;2023-06-10T12:32:42;98986.78;;;28.59;100.00
72721;BME280;60835;50.974;10.322;2023-06-10T12:35:10;98971.38;;;31.88;100.00
72721;BME280;60835;50.974;10.322;2023-06-10T12:37:40;98977.03;;;28.89;100.00
72721;BME280;60835;50.974;10.322;2023-06-10T12:40:09;98978.03;;;31.52;100.00
72721;BME280;60835;50.974;10.322;2023-06-10T12:42:37;98969.94;;;30.19;100.00
72721;BME280;60835;50.974;10.322;2023-06-10T12:45:05;98979.94;;;29.88;100.00
72721;BME280;60835;50.974;10.322;2023-06-10T12:47:36;98950.44;;;29.33;100.00
72721;BME280;60835;50.974;10.322;2023-06-10T12:50:06;98980.72;;;29.42;100.00
72721;BME280;60835;50.974;10.322;2023-06-10T12:52:33;98971.56;;;28.36;100.00
72721;BME280;60835;50.974;10.322;2023-06-10T12:55:00;98952.72;;;30.08;100.00
72721;BME280;60835;50.974;10.322;2023-06-10T12:57:28;98966.72;;;28.96;100.00
72721;BME280;60835;50.974;10.322;2023-06-10T12:59:56;98960.56;;;29.90;100.00
72721;BME280;60835;50.974;10.322;2023-06-10T13:02:31;98965.91;;;29.23;100.00
72721;BME280;60835;50.974;10.322;2023-06-10T13:04:58;98970.34;;;28.75;100.00
72721;BME280;60835;50.974;10.322;2023-06-10T13:07:25;98966.19;;;28.41;100.00
72721;BME280;60835;50.974;10.322;2023-06-10T13:09:53;98969.63;;;28.58;100.00